createdAt,value
2023-04-06T00:00:57.953Z,71.93
2023-04-06T00:03:28.297Z,71.98
2023-04-06T00:05:57.478Z,72.05
2023-04-06T00:08:27.174Z,72.07
2023-04-06T00:10:55.496Z,72.05
2023-04-06T00:13:29.274Z,71.90
2023-04-06T00:16:00.270Z,71.91
2023-04-06T00:18:30.538Z,72.12
2023-04-06T00:20:58.505Z,72.25
2023-04-06T00:23:26.466Z,72.27
2023-04-06T00:25:55.382Z,72.25
2023-04-06T00:28:27.146Z,72.15
2023-04-06T00:30:58.754Z,72.21
2023-04-06T00:33:27.494Z,72.25
2023-04-06T00:35:55.689Z,72.20
2023-04-06T00:38:24.348Z,72.17
2023-04-06T00:40:52.609Z,72.26
2023-04-06T00:43:21.927Z,72.31
2023-04-06T00:45:50.466Z,72.35
2023-04-06T00:48:20.536Z,72.48
2023-04-06T00:50:48.758Z,72.37
2023-04-06T00:53:17.273Z,72.50
2023-04-06T00:55:45.408Z,72.50
2023-04-06T00:58:13.734Z,72.58
2023-04-06T01:00:53.686Z,72.51
2023-04-06T01:03:24.823Z,72.44
2023-04-06T01:05:59.250Z,72.37
2023-04-06T01:08:31.986Z,72.57
2023-04-06T01:11:12.426Z,72.32
2023-04-06T01:13:40.983Z,72.51
2023-04-06T01:16:17.090Z,72.37
2023-04-06T01:19:11.513Z,72.27
2023-04-06T01:21:42.149Z,72.18
2023-04-06T01:24:19.232Z,72.09
2023-04-06T01:27:01.786Z,72.18
2023-04-06T01:29:35.439Z,72.16
2023-04-06T01:32:04.374Z,72.16
2023-04-06T01:34:34.156Z,72.16
2023-04-06T01:37:04.021Z,72.20
2023-04-06T01:39:33.067Z,72.27
2023-04-06T01:42:03.601Z,72.31
2023-04-06T01:44:35.786Z,72.22
2023-04-06T01:47:11.342Z,72.13
2023-04-06T01:49:41.641Z,72.14
2023-04-06T01:52:10.288Z,72.19
2023-04-06T01:54:42.316Z,72.10
2023-04-06T01:57:14.671Z,72.16
2023-04-06T02:00:03.161Z,71.85
2023-04-06T02:02:46.699Z,71.83
2023-04-06T02:05:22.769Z,71.82
2023-04-06T02:07:56.000Z,71.84
2023-04-06T02:10:31.348Z,71.85
2023-04-06T02:13:00.113Z,72.02
2023-04-06T02:15:28.508Z,72.05
2023-04-06T02:17:58.413Z,72.18
2023-04-06T02:20:27.749Z,72.29
2023-04-06T02:22:59.900Z,72.24
2023-04-06T02:25:28.055Z,72.07
2023-04-06T02:27:56.370Z,72.39
2023-04-06T02:30:25.627Z,72.14
2023-04-06T02:32:54.151Z,72.22
2023-04-06T02:35:22.678Z,72.08
2023-04-06T02:37:55.296Z,72.21
2023-04-06T02:40:23.295Z,72.31
2023-04-06T02:42:51.655Z,72.46
2023-04-06T02:45:22.373Z,72.33
2023-04-06T02:47:50.813Z,72.37
2023-04-06T02:50:19.445Z,72.46
2023-04-06T02:52:55.197Z,72.40
2023-04-06T02:55:23.904Z,72.48
2023-04-06T02:57:52.047Z,72.61
2023-04-06T03:00:24.328Z,72.82
2023-04-06T03:02:52.877Z,72.88
2023-04-06T03:05:21.694Z,73.05
2023-04-06T03:07:50.332Z,73.16
2023-04-06T03:10:26.286Z,73.32
2023-04-06T03:12:54.317Z,73.19
2023-04-06T03:15:34.197Z,73.27
2023-04-06T03:18:12.800Z,73.16
2023-04-06T03:20:48.236Z,73.21
2023-04-06T03:23:24.653Z,72.77
2023-04-06T03:25:56.484Z,72.69
2023-04-06T03:28:24.522Z,72.94
2023-04-06T03:30:58.081Z,72.95
2023-04-06T03:33:41.560Z,72.88
2023-04-06T03:36:11.411Z,72.83
2023-04-06T03:38:46.606Z,72.75
2023-04-06T03:41:15.924Z,72.70
2023-04-06T03:43:54.469Z,72.30
2023-04-06T03:46:23.044Z,72.29
2023-04-06T03:48:53.879Z,72.51
2023-04-06T03:51:25.864Z,72.29
2023-04-06T03:53:54.030Z,72.31
2023-04-06T03:56:23.598Z,72.28
2023-04-06T03:58:56.848Z,72.04
2023-04-06T04:01:26.626Z,71.67
2023-04-06T04:03:57.012Z,71.63
2023-04-06T04:06:25.346Z,71.73
2023-04-06T04:08:54.608Z,71.50
2023-04-06T04:11:22.868Z,71.46
2023-04-06T04:13:59.129Z,71.27
2023-04-06T04:16:28.252Z,71.12
2023-04-06T04:18:56.500Z,70.96
2023-04-06T04:21:26.590Z,70.93
2023-04-06T04:23:56.060Z,70.75
2023-04-06T04:26:25.776Z,70.50
2023-04-06T04:28:53.898Z,70.44
2023-04-06T04:31:23.755Z,70.41
2023-04-06T04:33:57.452Z,70.07
2023-04-06T04:36:29.809Z,69.97
2023-04-06T04:38:58.644Z,69.80
2023-04-06T04:41:27.307Z,69.75
2023-04-06T04:43:59.449Z,69.64
2023-04-06T04:46:27.835Z,69.64
2023-04-06T04:48:56.446Z,69.59
2023-04-06T04:51:26.360Z,69.39
2023-04-06T04:54:06.661Z,69.15
2023-04-06T04:56:39.223Z,69.22
2023-04-06T04:59:23.332Z,69.08
2023-04-06T05:01:57.390Z,69.18
2023-04-06T05:04:32.478Z,68.93
2023-04-06T05:07:05.861Z,68.87
2023-04-06T05:09:34.244Z,68.53
2023-04-06T05:12:05.537Z,68.42
2023-04-06T05:14:36.827Z,68.42
2023-04-06T05:17:06.426Z,68.20
2023-04-06T05:19:35.656Z,68.02
2023-04-06T05:22:03.901Z,68.01
2023-04-06T05:24:38.095Z,67.99
2023-04-06T05:27:07.658Z,67.78
2023-04-06T05:29:36.708Z,67.77
2023-04-06T05:32:07.332Z,67.65
2023-04-06T05:34:36.513Z,67.62
2023-04-06T05:37:05.531Z,67.38
2023-04-06T05:39:33.671Z,67.43
2023-04-06T05:42:05.744Z,67.35
2023-04-06T05:44:44.919Z,66.92
2023-04-06T05:47:15.819Z,66.67
2023-04-06T05:49:44.203Z,66.56
2023-04-06T05:52:16.384Z,66.43
2023-04-06T05:54:49.372Z,66.39
2023-04-06T05:57:17.817Z,66.22
2023-04-06T05:59:47.647Z,66.50
2023-04-06T06:02:19.364Z,66.38
2023-04-06T06:04:50.130Z,66.42
2023-04-06T06:07:18.863Z,66.23
2023-04-06T06:09:59.919Z,66.14
2023-04-06T06:12:36.284Z,66.10
2023-04-06T06:15:05.358Z,66.16
2023-04-06T06:17:39.110Z,66.04
2023-04-06T06:20:08.688Z,66.08
2023-04-06T06:22:38.966Z,65.85
2023-04-06T06:25:07.668Z,65.61
2023-04-06T06:27:36.381Z,65.37
2023-04-06T06:30:06.077Z,65.44
2023-04-06T06:32:37.521Z,65.23
2023-04-06T06:35:08.804Z,64.63
2023-04-06T06:37:37.244Z,64.16
2023-04-06T06:40:07.252Z,63.82
2023-04-06T06:42:36.090Z,63.63
2023-04-06T06:45:11.134Z,63.08
2023-04-06T06:47:40.127Z,62.51
2023-04-06T06:50:08.893Z,62.39
2023-04-06T06:52:43.212Z,62.43
2023-04-06T06:55:12.279Z,62.13
2023-04-06T06:57:40.283Z,61.88
2023-04-06T07:00:12.284Z,61.71
2023-04-06T07:02:48.780Z,61.57
2023-04-06T07:07:57.882Z,60.64
2023-04-06T07:10:27.559Z,60.22
2023-04-06T07:12:55.763Z,59.82
2023-04-06T07:15:24.318Z,59.42
2023-04-06T07:17:53.493Z,59.23
2023-04-06T07:20:21.863Z,59.15
2023-04-06T07:22:53.359Z,58.73
2023-04-06T07:25:24.310Z,59.08
2023-04-06T07:27:58.241Z,59.37
2023-04-06T07:30:29.714Z,59.43
2023-04-06T07:33:06.691Z,59.34
2023-04-06T07:35:38.357Z,59.24
2023-04-06T07:38:07.732Z,59.34
2023-04-06T07:40:36.895Z,59.40
2023-04-06T07:43:06.864Z,59.24
2023-04-06T07:45:36.280Z,59.26
2023-04-06T07:48:04.618Z,59.07
2023-04-06T07:50:33.303Z,59.23
2023-04-06T07:53:02.070Z,59.08
2023-04-06T07:55:32.083Z,59.03
2023-04-06T07:58:00.268Z,58.84
2023-04-06T08:00:28.968Z,58.95
2023-04-06T08:03:07.805Z,59.03
2023-04-06T08:05:36.301Z,59.10
2023-04-06T08:08:08.051Z,59.34
2023-04-06T08:10:38.894Z,59.59
2023-04-06T08:13:06.855Z,59.65
2023-04-06T08:15:41.682Z,59.46
2023-04-06T08:18:10.632Z,59.55
2023-04-06T08:20:38.643Z,60.05
2023-04-06T08:23:07.841Z,59.96
2023-04-06T08:25:36.782Z,60.39
2023-04-06T08:28:06.028Z,60.09
2023-04-06T08:30:34.365Z,59.74
2023-04-06T08:33:11.713Z,58.99
2023-04-06T08:35:39.820Z,59.34
2023-04-06T08:38:08.756Z,59.07
2023-04-06T08:40:38.680Z,58.95
2023-04-06T08:43:12.612Z,59.07
2023-04-06T08:45:42.689Z,59.06
2023-04-06T08:48:11.057Z,58.99
2023-04-06T08:50:40.148Z,58.92
2023-04-06T08:53:09.175Z,58.77
2023-04-06T08:55:38.201Z,58.88
2023-04-06T08:58:07.877Z,59.11
2023-04-06T09:00:40.055Z,59.24
2023-04-06T09:03:27.371Z,59.25
2023-04-06T09:05:56.657Z,59.30
2023-04-06T09:08:25.984Z,59.37
2023-04-06T09:10:54.129Z,59.40
2023-04-06T09:13:25.356Z,59.50
2023-04-06T09:16:05.058Z,59.46
2023-04-06T09:18:33.934Z,59.46
2023-04-06T09:21:05.362Z,59.55
2023-04-06T09:23:34.360Z,59.63
2023-04-06T09:26:16.214Z,59.81
2023-04-06T09:28:56.153Z,60.37
2023-04-06T09:31:28.736Z,60.86
2023-04-06T09:33:57.140Z,61.31
2023-04-06T09:36:32.262Z,61.61
2023-04-06T09:39:07.726Z,61.68
2023-04-06T09:41:37.364Z,62.13
2023-04-06T09:44:14.422Z,62.81
2023-04-06T09:46:58.552Z,63.26
2023-04-06T09:49:28.792Z,63.63
2023-04-06T09:51:58.611Z,64.34
2023-04-06T09:54:31.313Z,65.26
2023-04-06T09:57:11.304Z,66.24
2023-04-06T10:00:05.156Z,67.68
2023-04-06T10:02:57.134Z,68.66
2023-04-06T10:05:38.115Z,69.78
2023-04-06T10:08:08.581Z,70.62
2023-04-06T10:10:38.831Z,71.34
2023-04-06T10:13:07.240Z,72.66
2023-04-06T10:15:35.855Z,73.13
2023-04-06T10:18:04.659Z,73.51
2023-04-06T10:20:53.300Z,74.07
2023-04-06T10:23:50.286Z,74.71
2023-04-06T10:26:22.341Z,75.62
2023-04-06T10:28:51.924Z,75.29
2023-04-06T10:31:27.411Z,74.97
2023-04-06T10:34:03.090Z,75.14
2023-04-06T10:36:34.388Z,74.86
2023-04-06T10:39:04.521Z,74.99
2023-04-06T10:41:45.934Z,75.23
2023-04-06T10:44:25.228Z,75.28
2023-04-06T10:46:59.407Z,75.58
2023-04-06T10:49:27.962Z,75.60
2023-04-06T10:51:57.004Z,75.83
2023-04-06T10:54:26.053Z,76.04
2023-04-06T10:56:54.080Z,76.05
2023-04-06T10:59:23.233Z,75.92
2023-04-06T11:01:52.461Z,75.74
2023-04-06T11:04:21.316Z,75.79
2023-04-06T11:06:50.001Z,76.11
2023-04-06T11:09:26.163Z,76.03
2023-04-06T11:11:54.462Z,76.08
2023-04-06T11:14:24.308Z,76.20
2023-04-06T11:16:52.570Z,76.02
2023-04-06T11:19:21.066Z,75.86
2023-04-06T11:21:55.103Z,75.46
2023-04-06T11:24:25.103Z,74.87
2023-04-06T11:26:58.975Z,74.22
2023-04-06T11:29:28.487Z,73.65
2023-04-06T11:32:00.807Z,73.41
2023-04-06T11:34:30.498Z,72.32
2023-04-06T11:37:00.884Z,71.97
2023-04-06T11:39:30.537Z,72.00
2023-04-06T11:42:01.003Z,72.15
2023-04-06T11:44:34.141Z,72.41
2023-04-06T11:47:04.661Z,72.46
2023-04-06T11:49:34.238Z,72.43
2023-04-06T11:52:04.242Z,72.02
2023-04-06T11:54:34.292Z,72.35
2023-04-06T11:57:03.535Z,71.86
2023-04-06T11:59:32.707Z,71.32
2023-04-06T12:02:02.440Z,70.55
2023-04-06T12:04:31.164Z,70.43
2023-04-06T12:06:59.408Z,69.42
2023-04-06T12:09:27.846Z,68.71
2023-04-06T12:11:57.140Z,68.74
2023-04-06T12:14:25.180Z,68.66
2023-04-06T12:16:53.591Z,68.83
2023-04-06T12:19:22.213Z,68.89
2023-04-06T12:21:51.404Z,68.48
2023-04-06T12:24:19.534Z,67.80
2023-04-06T12:26:48.405Z,67.52
2023-04-06T12:29:16.622Z,66.60
2023-04-06T12:31:46.232Z,66.69
2023-04-06T12:34:14.447Z,66.46
2023-04-06T12:36:43.100Z,66.27
2023-04-06T12:39:14.309Z,65.61
2023-04-06T12:41:42.513Z,65.33
2023-04-06T12:44:10.613Z,65.62
2023-04-06T12:46:39.297Z,65.11
2023-04-06T12:49:07.528Z,64.87
2023-04-06T12:51:41.631Z,64.64
2023-04-06T12:54:10.589Z,64.78
2023-04-06T12:56:38.737Z,64.82
2023-04-06T12:59:07.416Z,64.83
2023-04-06T13:01:36.897Z,64.95
2023-04-06T13:04:05.074Z,65.34
2023-04-06T13:06:35.267Z,65.54
2023-04-06T13:09:04.317Z,65.56
2023-04-06T13:11:33.494Z,65.85
2023-04-06T13:14:02.009Z,66.25
2023-04-06T13:16:33.785Z,66.80
2023-04-06T13:19:02.496Z,67.50
2023-04-06T13:21:34.658Z,68.11
2023-04-06T13:24:02.850Z,68.40
2023-04-06T13:26:31.197Z,69.25
2023-04-06T13:29:00.491Z,70.13
2023-04-06T13:31:31.650Z,70.89
2023-04-06T13:34:00.242Z,71.36
2023-04-06T13:36:28.913Z,71.78
2023-04-06T13:38:59.582Z,71.86
2023-04-06T13:41:28.022Z,72.44
2023-04-06T13:43:56.071Z,72.71
2023-04-06T13:46:26.022Z,73.11
2023-04-06T13:48:55.126Z,73.50
2023-04-06T13:51:23.716Z,73.67
2023-04-06T13:53:53.741Z,73.71
2023-04-06T13:56:24.116Z,73.66
2023-04-06T13:58:55.528Z,73.46
2023-04-06T14:01:23.898Z,73.43
2023-04-06T14:03:53.333Z,73.14
2023-04-06T14:06:31.132Z,73.27
2023-04-06T14:09:02.748Z,73.04
2023-04-06T14:11:33.494Z,73.06
2023-04-06T14:14:02.014Z,72.71
2023-04-06T14:16:30.247Z,72.43
2023-04-06T14:18:59.908Z,72.21
2023-04-06T14:21:28.548Z,71.93
2023-04-06T14:23:58.072Z,71.77
2023-04-06T14:26:28.746Z,71.71
2023-04-06T14:28:56.958Z,71.60
2023-04-06T14:31:27.343Z,71.37
2023-04-06T14:33:55.761Z,71.42
2023-04-06T14:36:24.158Z,71.37
2023-04-06T14:38:55.018Z,71.20
2023-04-06T14:41:23.884Z,71.09
2023-04-06T14:43:53.796Z,71.03
2023-04-06T14:46:22.013Z,70.94
2023-04-06T14:48:50.140Z,70.89
2023-04-06T14:51:18.287Z,70.81
2023-04-06T14:53:46.925Z,71.02
2023-04-06T14:56:21.612Z,70.90
2023-04-06T14:58:52.609Z,70.69
2023-04-06T15:01:24.272Z,70.59
2023-04-06T15:03:53.690Z,70.30
2023-04-06T15:06:22.596Z,70.10
2023-04-06T15:08:52.129Z,70.01
2023-04-06T15:11:21.143Z,69.89
2023-04-06T15:13:50.784Z,69.83
2023-04-06T15:16:21.123Z,69.90
2023-04-06T15:18:49.177Z,69.59
2023-04-06T15:21:17.240Z,69.59
2023-04-06T15:23:45.745Z,69.48
2023-04-06T15:26:14.067Z,69.42
2023-04-06T15:28:44.790Z,69.59
2023-04-06T15:31:24.457Z,69.73
2023-04-06T15:34:01.600Z,69.80
2023-04-06T15:36:33.279Z,69.84
2023-04-06T15:39:01.817Z,69.76
2023-04-06T15:41:30.959Z,69.49
2023-04-06T15:43:58.967Z,69.50
2023-04-06T15:46:29.023Z,69.54
2023-04-06T15:48:57.423Z,69.55
2023-04-06T15:51:26.600Z,69.37
2023-04-06T15:53:58.782Z,69.26
2023-04-06T15:56:27.022Z,69.29
2023-04-06T15:59:01.664Z,69.36
2023-04-06T16:01:31.565Z,69.38
2023-04-06T16:04:01.079Z,69.31
2023-04-06T16:06:29.584Z,69.36
2023-04-06T16:08:58.683Z,69.47
2023-04-06T16:11:26.825Z,69.26
2023-04-06T16:13:55.645Z,69.23
2023-04-06T16:16:24.454Z,69.33
2023-04-06T16:18:52.978Z,69.46
2023-04-06T16:21:21.332Z,69.69
2023-04-06T16:23:49.420Z,69.77
2023-04-06T16:26:21.845Z,69.78
2023-04-06T16:28:51.508Z,69.93
2023-04-06T16:31:23.731Z,69.57
2023-04-06T16:33:53.041Z,69.81
2023-04-06T16:36:29.217Z,70.42
2023-04-06T16:39:00.188Z,71.24
2023-04-06T16:41:28.256Z,72.03
2023-04-06T16:43:57.556Z,72.43
2023-04-06T16:46:32.742Z,72.73
2023-04-06T16:49:01.031Z,73.24
2023-04-06T16:51:29.825Z,73.58
2023-04-06T16:53:58.359Z,73.67
2023-04-06T16:56:27.704Z,73.88
2023-04-06T16:58:55.653Z,73.95
2023-04-06T17:01:26.394Z,74.30
2023-04-06T17:03:55.278Z,74.66
2023-04-06T17:06:23.851Z,74.93
2023-04-06T17:08:53.712Z,75.14
2023-04-06T17:11:28.578Z,75.22
2023-04-06T17:14:04.159Z,75.20
2023-04-06T17:16:32.782Z,74.79
2023-04-06T17:19:02.880Z,74.54
2023-04-06T17:21:31.360Z,74.27
2023-04-06T17:23:59.549Z,74.39
2023-04-06T17:26:27.595Z,74.34
2023-04-06T17:28:55.945Z,74.29
2023-04-06T17:31:30.456Z,74.32
2023-04-06T17:34:00.028Z,74.16
2023-04-06T17:36:28.645Z,74.16
2023-04-06T17:38:59.539Z,74.03
2023-04-06T17:41:28.947Z,73.99
2023-04-06T17:43:57.050Z,74.13
2023-04-06T17:46:25.757Z,74.05
2023-04-06T17:48:53.832Z,73.78
2023-04-06T17:51:25.046Z,73.45
2023-04-06T17:53:53.278Z,73.22
2023-04-06T17:56:21.750Z,73.26
2023-04-06T18:01:20.081Z,73.19
2023-04-06T18:03:48.724Z,73.22
2023-04-06T18:06:16.927Z,73.18
2023-04-06T18:08:44.949Z,73.13
2023-04-06T18:11:21.501Z,73.04
2023-04-06T18:13:49.954Z,73.12
2023-04-06T18:16:23.755Z,73.24
2023-04-06T18:18:53.211Z,73.29
2023-04-06T18:21:21.447Z,73.47
2023-04-06T18:23:49.515Z,73.53
2023-04-06T18:26:18.651Z,73.58
2023-04-06T18:28:49.044Z,73.59
2023-04-06T18:31:18.517Z,73.55
2023-04-06T18:33:46.921Z,73.72
2023-04-06T18:36:15.087Z,73.80
2023-04-06T18:38:44.839Z,73.89
2023-04-06T18:41:14.719Z,73.89
2023-04-06T18:43:43.053Z,73.70
2023-04-06T18:46:14.798Z,73.47
2023-04-06T18:48:43.228Z,73.35
2023-04-06T18:51:11.562Z,73.45
2023-04-06T18:53:40.220Z,73.33
2023-04-06T18:56:15.801Z,73.36
2023-04-06T18:58:44.911Z,73.48
2023-04-06T19:01:30.249Z,73.37
2023-04-06T19:04:01.563Z,73.26
2023-04-06T19:06:31.352Z,73.20
2023-04-06T19:09:00.069Z,73.02
2023-04-06T19:11:31.868Z,73.06
2023-04-06T19:13:59.892Z,72.23
2023-04-06T19:16:32.194Z,72.04
2023-04-06T19:19:00.777Z,72.43
2023-04-06T19:21:28.940Z,72.94
2023-04-06T19:23:58.676Z,73.68
2023-04-06T19:26:27.989Z,74.16
2023-04-06T19:28:56.128Z,74.50
2023-04-06T19:31:27.050Z,74.84
2023-04-06T19:33:57.760Z,75.21
2023-04-06T19:36:28.063Z,75.45
2023-04-06T19:38:56.147Z,75.26
2023-04-06T19:41:24.877Z,74.85
2023-04-06T19:43:53.500Z,73.82
2023-04-06T19:46:21.721Z,73.40
2023-04-06T19:48:50.135Z,73.39
2023-04-06T19:51:18.113Z,73.17
2023-04-06T19:53:46.972Z,73.10
2023-04-06T19:56:16.421Z,72.98
2023-04-06T19:58:44.779Z,73.05
2023-04-06T20:01:13.054Z,72.91
2023-04-06T20:03:41.376Z,72.94
2023-04-06T20:06:09.695Z,72.83
2023-04-06T20:08:37.713Z,72.88
2023-04-06T20:11:08.817Z,72.90
2023-04-06T20:13:37.515Z,72.73
2023-04-06T20:16:05.785Z,72.62
2023-04-06T20:18:47.708Z,72.23
2023-04-06T20:21:16.264Z,71.94
2023-04-06T20:23:44.486Z,71.99
2023-04-06T20:26:12.417Z,72.05
2023-04-06T20:28:41.074Z,71.90
2023-04-06T20:31:16.461Z,71.90
2023-04-06T20:33:44.927Z,71.92
2023-04-06T20:36:15.211Z,71.92
2023-04-06T20:38:47.986Z,71.75
2023-04-06T20:41:16.500Z,71.80
2023-04-06T20:43:45.302Z,71.59
2023-04-06T20:46:19.382Z,71.02
2023-04-06T20:48:47.697Z,70.98
2023-04-06T20:51:19.452Z,70.76
2023-04-06T20:53:48.712Z,70.74
2023-04-06T20:56:22.083Z,71.11
2023-04-06T20:58:50.609Z,71.02
2023-04-06T21:01:21.681Z,70.69
2023-04-06T21:03:52.064Z,70.57
2023-04-06T21:06:20.184Z,70.53
2023-04-06T21:08:48.253Z,70.46
2023-04-06T21:11:17.844Z,70.73
2023-04-06T21:13:46.176Z,70.73
2023-04-06T21:16:17.660Z,71.05
2023-04-06T21:18:48.506Z,71.12
2023-04-06T21:21:16.720Z,71.22
2023-04-06T21:23:46.519Z,71.33
2023-04-06T21:26:14.974Z,71.50
2023-04-06T21:28:42.959Z,71.66
2023-04-06T21:31:11.420Z,71.65
2023-04-06T21:33:41.169Z,71.62
2023-04-06T21:36:09.670Z,71.74
2023-04-06T21:38:38.019Z,71.72
2023-04-06T21:41:07.305Z,71.43
2023-04-06T21:43:37.161Z,71.19
2023-04-06T21:46:05.529Z,70.94
2023-04-06T21:48:34.412Z,70.80
2023-04-06T21:51:02.476Z,70.45
2023-04-06T21:53:30.689Z,69.99
2023-04-06T21:55:58.845Z,69.56
2023-04-06T21:58:26.976Z,69.47
2023-04-06T22:00:55.082Z,69.26
2023-04-06T22:03:23.778Z,69.39
2023-04-06T22:05:52.689Z,69.73
2023-04-06T22:08:33.228Z,69.71
2023-04-06T22:11:09.731Z,69.82
2023-04-06T22:13:39.288Z,69.77
2023-04-06T22:16:07.554Z,69.46
2023-04-06T22:18:38.722Z,69.19
2023-04-06T22:21:08.428Z,69.20
2023-04-06T22:23:42.268Z,68.63
2023-04-06T22:26:13.321Z,68.60
2023-04-06T22:28:43.074Z,68.25
2023-04-06T22:31:11.124Z,68.27
2023-04-06T22:33:40.360Z,68.11
2023-04-06T22:36:08.623Z,67.75
2023-04-06T22:38:40.030Z,67.77
2023-04-06T22:41:08.651Z,67.39
2023-04-06T22:43:39.233Z,67.30
2023-04-06T22:46:07.502Z,67.13
2023-04-06T22:48:37.370Z,67.30
2023-04-06T22:51:05.723Z,67.02
2023-04-06T22:53:34.153Z,67.25
2023-04-06T22:56:05.117Z,66.60
2023-04-06T22:58:33.912Z,66.52
2023-04-06T23:01:08.056Z,66.71
2023-04-06T23:03:38.694Z,66.54
2023-04-06T23:06:07.543Z,66.17
2023-04-06T23:08:36.105Z,66.04
2023-04-06T23:11:05.223Z,66.34
2023-04-06T23:13:36.478Z,66.39
2023-04-06T23:16:07.350Z,66.52
2023-04-06T23:18:39.195Z,66.13
2023-04-06T23:21:10.530Z,66.37
2023-04-06T23:23:39.824Z,66.19
2023-04-06T23:26:08.853Z,66.12
2023-04-06T23:28:38.214Z,66.42
2023-04-06T23:31:08.836Z,66.52
2023-04-06T23:33:37.968Z,66.83
2023-04-06T23:36:06.103Z,66.85
2023-04-06T23:38:35.164Z,66.72
2023-04-06T23:41:03.089Z,66.59
2023-04-06T23:43:31.125Z,66.74
2023-04-06T23:45:59.204Z,66.71
2023-04-06T23:48:28.004Z,67.01
2023-04-06T23:50:56.035Z,66.67
2023-04-06T23:53:26.837Z,66.35
2023-04-06T23:55:54.886Z,66.40
2023-04-06T23:58:23.016Z,66.27
